Time;durP1;ratioP1;P1;durP2;ratioP2;P2;SDS_P1;SDS_P2;PMS_P1;PMS_P2;Temp;Humidity;BMP_temperature;BMP_pressure;BME280_temperature;BME280_humidity;BME280_pressure;Samples;Min_cycle;Max_cycle;Signal;HPM_P1;HPM_P2
2022/09/14 00:00:58;;;;;;;22.17;2.13;;;;;;;13.28;100.00;99911.31;5027535;28;20021;-78
2022/09/14 00:03:23;;;;;;;11.97;2.33;;;;;;;13.22;100.00;99906.72;5044467;28;20106;-78
2022/09/14 00:05:48;;;;;;;12.60;1.97;;;;;;;13.26;100.00;99917.88;5044499;28;20017;-78
2022/09/14 00:08:14;;;;;;;9.00;1.87;;;;;;;13.17;100.00;99919.88;5044756;28;20036;-78
2022/09/14 00:10:41;;;;;;;15.37;2.73;;;;;;;13.14;100.00;99924.84;5028237;28;20029;-78
2022/09/14 00:13:08;;;;;;;10.32;2.83;;;;;;;13.10;100.00;99925.22;5027425;28;20029;-78
2022/09/14 00:15:38;;;;;;;15.15;1.98;;;;;;;13.01;100.00;99934.44;5019764;28;20070;-78
2022/09/14 00:18:05;;;;;;;20.40;3.10;;;;;;;13.05;100.00;99938.38;5037109;28;20124;-78
2022/09/14 00:20:31;;;;;;;12.55;1.98;;;;;;;13.02;100.00;99935.28;5012850;28;20013;-79
2022/09/14 00:22:56;;;;;;;12.30;2.03;;;;;;;12.95;100.00;99931.75;5037333;28;20460;-78
2022/09/14 00:25:22;;;;;;;14.77;2.65;;;;;;;12.89;100.00;99933.34;5034532;28;20048;-78
2022/09/14 00:27:48;;;;;;;7.65;1.95;;;;;;;12.81;100.00;99941.56;5034406;28;20025;-77
2022/09/14 00:30:13;;;;;;;10.53;2.23;;;;;;;12.82;100.00;99960.09;5042997;28;20025;-79
2022/09/14 00:32:38;;;;;;;12.77;2.37;;;;;;;12.82;100.00;99960.09;5040636;28;20091;-79
2022/09/14 00:35:04;;;;;;;14.03;3.60;;;;;;;12.78;100.00;99958.84;5038255;28;20099;-77
2022/09/14 00:37:29;;;;;;;13.45;2.33;;;;;;;12.75;100.00;99961.06;5036929;28;20025;-79
2022/09/14 00:39:55;;;;;;;8.40;2.37;;;;;;;12.70;100.00;99942.09;5028653;28;20021;-79
2022/09/14 00:42:20;;;;;;;11.70;2.00;;;;;;;12.74;100.00;99948.72;5028767;28;20037;-79
2022/09/14 00:44:45;;;;;;;14.80;2.30;;;;;;;12.74;100.00;99944.19;5028036;28;20033;-78
2022/09/14 00:47:11;;;;;;;14.10;3.83;;;;;;;12.72;100.00;99945.41;5028040;28;20120;-79
2022/09/14 00:49:39;;;;;;;18.77;2.30;;;;;;;12.77;100.00;99946.47;5023920;28;20029;-78
2022/09/14 00:52:18;;;;;;;12.02;2.22;;;;;;;12.69;100.00;99933.25;5017317;28;20300;-79
2022/09/14 00:54:54;;;;;;;12.13;2.53;;;;;;;12.61;100.00;99936.06;5013335;28;20034;-79
2022/09/14 00:57:20;;;;;;;13.40;2.22;;;;;;;12.54;100.00;99941.34;5025065;28;20112;-79
2022/09/14 00:59:49;;;;;;;11.60;2.13;;;;;;;12.57;100.00;99938.31;5024905;28;20052;-79
2022/09/14 01:02:15;;;;;;;16.33;2.95;;;;;;;12.66;100.00;99950.50;5025245;28;20538;-78
2022/09/14 01:04:42;;;;;;;7.45;2.28;;;;;;;12.77;100.00;99959.03;5025298;28;20175;-78
2022/09/14 01:07:32;;;;;;;9.30;2.03;;;;;;;12.91;100.00;99952.72;5024395;28;20114;-79
2022/09/14 01:10:27;;;;;;;11.15;1.65;;;;;;;13.02;100.00;99952.19;5024380;28;20037;-78
2022/09/14 01:13:21;;;;;;;15.98;3.05;;;;;;;13.09;100.00;99947.69;5026125;28;20104;-78
2022/09/14 01:15:56;;;;;;;20.88;3.42;;;;;;;13.06;100.00;99933.84;5028097;28;20033;-78
2022/09/14 01:18:35;;;;;;;17.90;2.30;;;;;;;13.06;100.00;99936.53;5027777;28;20038;-78
2022/09/14 01:21:13;;;;;;;9.77;3.15;;;;;;;13.17;100.00;99941.31;5028270;28;20029;-78
2022/09/14 01:23:58;;;;;;;11.75;2.05;;;;;;;13.17;100.00;99940.50;5011804;28;20033;-78
2022/09/14 01:27:15;;;;;;;11.30;1.95;;;;;;;13.18;100.00;99948.34;5027637;28;20571;-79
2022/09/14 01:30:03;;;;;;;16.90;3.00;;;;;;;13.17;100.00;99935.97;5019082;28;20935;-78
2022/09/14 01:32:39;;;;;;;11.63;2.30;;;;;;;13.25;100.00;99934.97;5016546;28;20030;-79
2022/09/14 01:35:15;;;;;;;;;;;;;;;13.30;100.00;99924.53;5025116;28;20408;-78
2022/09/14 01:37:47;;;;;;;;;;;;;;;13.29;100.00;99925.53;5028262;28;20378;-78
2022/09/14 01:40:21;;;;;;;17.58;2.22;;;;;;;13.28;100.00;99913.16;5029359;28;19920;-79
2022/09/14 01:42:53;;;;;;;11.73;2.22;;;;;;;13.27;100.00;99903.41;5024410;28;20114;-78
2022/09/14 01:45:22;;;;;;;7.95;1.88;;;;;;;13.21;100.00;99888.97;5038596;28;20037;-79
2022/09/14 01:47:59;;;;;;;11.25;3.22;;;;;;;13.25;100.00;99902.78;5028795;28;20048;-78
2022/09/14 01:50:32;;;;;;;19.83;3.38;;;;;;;13.20;100.00;99898.03;5036981;28;20055;-79
2022/09/14 01:53:25;;;;;;;10.90;2.58;;;;;;;13.18;100.00;99878.69;5029136;28;20044;-78
2022/09/14 01:55:56;;;;;;;12.00;2.10;;;;;;;13.21;100.00;99867.53;5030510;28;20771;-77
2022/09/14 01:58:36;;;;;;;14.60;2.03;;;;;;;13.25;100.00;99878.66;5021344;28;20064;-78
2022/09/14 02:01:04;;;;;;;15.65;2.78;;;;;;;13.18;100.00;99883.19;5028587;28;20087;-78
2022/09/14 02:03:39;;;;;;;9.88;2.40;;;;;;;13.16;100.00;99856.59;5009402;28;20080;-78
2022/09/14 02:06:20;;;;;;;8.57;1.88;;;;;;;13.15;100.00;99868.34;5020419;28;20037;-78
2022/09/14 02:08:46;;;;;;;11.95;2.35;;;;;;;13.09;100.00;99880.69;5017933;28;20037;-78
2022/09/14 02:11:11;;;;;;;15.57;1.85;;;;;;;13.06;100.00;99861.50;5043882;28;20032;-79
2022/09/14 02:13:37;;;;;;;10.70;1.97;;;;;;;12.95;100.00;99849.50;5019133;28;20111;-78
2022/09/14 02:16:03;;;;;;;13.97;2.23;;;;;;;12.93;100.00;99870.31;5028103;28;20111;-78
2022/09/14 02:18:28;;;;;;;11.63;2.00;;;;;;;12.86;100.00;99853.38;5039480;28;20044;-78
2022/09/14 02:20:59;;;;;;;11.27;2.37;;;;;;;12.79;100.00;99842.63;5023469;28;20025;-78
2022/09/14 02:23:24;;;;;;;11.43;2.80;;;;;;;12.68;100.00;99841.34;5020563;28;20473;-78
2022/09/14 02:25:50;;;;;;;11.73;3.05;;;;;;;12.65;100.00;99840.91;5027566;28;20085;-77
2022/09/14 02:28:19;;;;;;;15.50;3.28;;;;;;;12.64;100.00;99850.81;5030395;28;20033;-79
2022/09/14 02:30:54;;;;;;;12.77;2.90;;;;;;;12.67;100.00;99861.13;5039771;28;20016;-78
2022/09/14 02:33:28;;;;;;;10.70;3.10;;;;;;;12.78;100.00;99854.38;5021176;28;20414;-79
2022/09/14 02:35:57;;;;;;;10.55;3.08;;;;;;;12.78;100.00;99840.16;5036077;28;20124;-79
2022/09/14 02:38:51;;;;;;;10.80;2.15;;;;;;;12.85;100.00;99846.34;5039243;28;20041;-78
2022/09/14 02:41:25;;;;;;;12.38;2.33;;;;;;;12.96;100.00;99837.75;5020591;28;20041;-78
2022/09/14 02:44:34;;;;;;;11.38;2.72;;;;;;;13.07;100.00;99834.50;5019803;28;20061;-77
2022/09/14 02:47:10;;;;;;;16.33;2.97;;;;;;;13.07;100.00;99821.09;4998060;28;20030;-79
2022/09/14 02:49:57;;;;;;;;;;;;;;;13.14;100.00;99812.28;5004420;28;20133;-78
2022/09/14 02:52:41;;;;;;;13.13;2.42;;;;;;;13.08;100.00;99812.03;5037370;28;19913;-78
2022/09/14 02:55:11;;;;;;;13.45;2.25;;;;;;;13.10;100.00;99812.66;5014423;28;20440;-78
2022/09/14 02:57:58;;;;;;;17.00;2.60;;;;;;;13.10;100.00;99811.84;5023001;28;20120;-78
2022/09/14 03:00:23;;;;;;;12.95;3.83;;;;;;;13.04;100.00;99802.75;5019943;28;20033;-79
2022/09/14 03:02:49;;;;;;;10.77;2.70;;;;;;;13.07;100.00;99797.00;5027842;28;20079;-78
2022/09/14 03:05:14;;;;;;;14.17;2.50;;;;;;;13.10;100.00;99790.41;5037028;28;20106;-77
2022/09/14 03:07:39;;;;;;;15.23;2.53;;;;;;;13.12;100.00;99796.38;5039298;28;20032;-79
2022/09/14 03:10:05;;;;;;;14.73;2.90;;;;;;;13.07;100.00;99802.34;5022378;28;20128;-78
2022/09/14 03:12:30;;;;;;;14.10;2.50;;;;;;;13.00;100.00;99819.44;5035686;28;20033;-77
2022/09/14 03:14:55;;;;;;;12.80;2.07;;;;;;;12.89;100.00;99815.47;5043559;28;20043;-77
2022/09/14 03:17:21;;;;;;;10.30;2.00;;;;;;;12.80;100.00;99825.53;5046248;28;20053;-77
2022/09/14 03:19:46;;;;;;;12.73;2.37;;;;;;;12.67;100.00;99839.69;5040205;28;20025;-79
2022/09/14 03:22:11;;;;;;;13.83;2.90;;;;;;;12.59;100.00;99858.59;5037559;28;20032;-78
2022/09/14 03:24:37;;;;;;;14.40;2.37;;;;;;;12.57;100.00;99860.66;5026901;28;20037;-79
2022/09/14 03:27:02;;;;;;;9.43;2.63;;;;;;;12.45;100.00;99872.91;5013672;28;20018;-78
2022/09/14 03:29:28;;;;;;;10.93;3.20;;;;;;;12.41;100.00;99893.91;5013592;28;20079;-78
2022/09/14 03:31:54;;;;;;;8.80;2.63;;;;;;;12.38;100.00;99896.97;5038660;28;20029;-78
2022/09/14 03:34:20;;;;;;;;;;;;;;;12.44;100.00;99903.41;5037137;28;20033;-79
2022/09/14 03:36:45;;;;;;;;;;;;;;;12.42;100.00;99900.09;5015369;28;19991;-79
2022/09/14 03:39:11;;;;;;;11.53;2.40;;;;;;;12.49;100.00;99900.97;5035289;28;19917;-78
2022/09/14 03:41:36;;;;;;;15.13;2.22;;;;;;;12.49;100.00;99894.78;5031239;28;20021;-79
2022/09/14 03:44:02;;;;;;;13.63;3.38;;;;;;;12.55;100.00;99883.28;5029157;28;20032;-79
2022/09/14 03:46:27;;;;;;;15.27;2.87;;;;;;;12.57;100.00;99883.91;5009086;28;20076;-79
2022/09/14 03:48:54;;;;;;;14.27;2.27;;;;;;;12.58;100.00;99881.03;5009144;28;20032;-78
2022/09/14 03:51:19;;;;;;;10.82;2.60;;;;;;;12.66;100.00;99882.72;5025433;28;20025;-78
2022/09/14 03:53:45;;;;;;;14.57;3.07;;;;;;;12.72;100.00;99873.09;5025727;28;20589;-79
2022/09/14 03:56:16;;;;;;;13.13;2.65;;;;;;;12.68;100.00;99852.03;5024744;28;20541;-79
2022/09/14 03:58:43;;;;;;;8.55;2.60;;;;;;;12.78;100.00;99858.91;5005751;28;20124;-79
2022/09/14 04:01:13;;;;;;;10.43;1.90;;;;;;;12.75;100.00;99856.63;5027767;28;20103;-79
2022/09/14 04:03:39;;;;;;;12.35;3.10;;;;;;;12.76;100.00;99867.16;5025324;28;20478;-79
2022/09/14 04:06:05;;;;;;;16.25;3.10;;;;;;;12.76;100.00;99860.94;5024672;28;20017;-78
2022/09/14 04:08:36;;;;;;;13.18;2.25;;;;;;;12.78;100.00;99861.56;5024901;28;20030;-77
2022/09/14 04:11:23;;;;;;;8.18;1.90;;;;;;;12.78;100.00;99834.78;5024109;28;20061;-79
2022/09/14 04:13:49;;;;;;;10.23;2.78;;;;;;;12.78;100.00;99821.41;5024588;28;20043;-78
2022/09/14 04:16:16;;;;;;;8.93;2.35;;;;;;;12.85;100.00;99824.94;5008219;28;20482;-77
2022/09/14 04:18:41;;;;;;;16.33;2.53;;;;;;;12.81;100.00;99800.41;5025090;28;20124;-78
2022/09/14 04:21:15;;;;;;;14.37;2.77;;;;;;;12.82;100.00;99785.97;5016819;28;20155;-78
2022/09/14 04:23:41;;;;;;;11.15;2.38;;;;;;;12.83;100.00;99792.16;5008872;28;20037;-78
2022/09/14 04:26:11;;;;;;;12.70;2.93;;;;;;;12.78;100.00;99799.97;5008629;28;20024;-79
2022/09/14 04:28:37;;;;;;;14.02;4.53;;;;;;;12.89;100.00;99820.84;5025910;28;20021;-77
2022/09/14 04:31:03;;;;;;;8.80;2.20;;;;;;;12.85;100.00;99803.50;5023827;28;20616;-77
2022/09/14 04:33:31;;;;;;;8.95;2.20;;;;;;;12.83;100.00;99810.91;5024393;28;20116;-79
2022/09/14 04:36:02;;;;;;;12.23;2.08;;;;;;;12.92;100.00;99825.78;5017058;28;20034;-78
2022/09/14 04:38:29;;;;;;;15.98;3.17;;;;;;;12.87;100.00;99806.81;5024950;28;20030;-79
2022/09/14 04:40:54;;;;;;;13.85;1.92;;;;;;;12.89;100.00;99812.78;5024788;28;20360;-79
2022/09/14 04:43:20;;;;;;;8.35;2.20;;;;;;;12.82;100.00;99806.59;5022650;28;20428;-77
2022/09/14 04:45:45;;;;;;;14.10;2.77;;;;;;;12.85;100.00;99799.00;5018401;28;20055;-81
2022/09/14 04:48:10;;;;;;;10.30;3.20;;;;;;;12.77;100.00;99798.34;5026453;28;20056;-78
2022/09/14 04:50:36;;;;;;;15.63;3.20;;;;;;;12.67;100.00;99812.91;5028219;28;20021;-78
2022/09/14 04:53:01;;;;;;;9.83;2.30;;;;;;;12.64;100.00;99829.38;5028524;28;20091;-79
2022/09/14 04:55:27;;;;;;;14.90;4.28;;;;;;;12.55;100.00;99832.41;5011806;28;20489;-77
2022/09/14 04:57:53;;;;;;;11.13;3.70;;;;;;;12.53;100.00;99846.00;5011685;28;20083;-78
2022/09/14 05:00:18;;;;;;;11.30;2.57;;;;;;;12.43;100.00;99853.53;5012104;28;20060;-79
2022/09/14 05:02:44;;;;;;;7.95;2.22;;;;;;;12.39;100.00;99850.44;5029807;28;20475;-78
2022/09/14 05:05:09;;;;;;;18.20;2.67;;;;;;;12.40;100.00;99868.16;5011584;28;20029;-78
2022/09/14 05:07:35;;;;;;;11.70;2.40;;;;;;;12.40;100.00;99889.56;5012491;28;20030;-78
2022/09/14 05:10:00;;;;;;;15.77;2.67;;;;;;;12.36;100.00;99887.47;5012431;28;20144;-79
2022/09/14 05:12:26;;;;;;;10.97;3.03;;;;;;;12.38;100.00;99893.47;5028737;28;20088;-78
2022/09/14 05:14:51;;;;;;;6.57;1.90;;;;;;;12.42;100.00;99900.09;5011569;28;20025;-78
2022/09/14 05:17:16;;;;;;;16.97;3.57;;;;;;;12.43;100.00;99894.56;5028429;28;20099;-79
2022/09/14 05:19:41;;;;;;;9.87;1.90;;;;;;;12.46;100.00;99901.34;5011731;28;20032;-78
2022/09/14 05:22:07;;;;;;;12.03;2.13;;;;;;;12.47;100.00;99884.25;5028402;28;20057;-78
2022/09/14 05:24:32;;;;;;;11.23;2.30;;;;;;;12.62;100.00;99885.00;5028423;28;20037;-78
2022/09/14 05:26:58;;;;;;;9.50;3.10;;;;;;;12.71;100.00;99884.81;5027857;28;20030;-77
2022/09/14 05:29:23;;;;;;;11.13;1.90;;;;;;;12.83;100.00;99875.19;5011525;28;20660;-77
2022/09/14 05:31:48;;;;;;;11.67;2.40;;;;;;;12.93;100.00;99853.41;5027320;28;20037;-78
2022/09/14 05:34:14;;;;;;;11.10;3.10;;;;;;;12.98;100.00;99830.34;5028065;28;20325;-78
2022/09/14 05:36:40;;;;;;;14.17;2.03;;;;;;;13.09;100.00;99824.41;5027752;28;20966;-78
2022/09/14 05:39:06;;;;;;;10.45;1.92;;;;;;;13.07;100.00;99812.25;5027879;28;20029;-79
2022/09/14 05:41:32;;;;;;;12.60;2.78;;;;;;;13.05;100.00;99809.75;5026845;28;20037;-78
2022/09/14 05:43:58;;;;;;;6.83;1.70;;;;;;;13.11;100.00;99813.50;5011906;28;20021;-79
2022/09/14 05:46:24;;;;;;;10.43;2.22;;;;;;;13.15;100.00;99821.94;5027770;28;20553;-78
2022/09/14 05:48:50;;;;;;;6.13;1.73;;;;;;;13.20;100.00;99806.91;5011442;28;20116;-78
2022/09/14 05:51:17;;;;;;;;;;;;;;;13.35;100.00;99816.69;5027905;28;20414;-79
2022/09/14 05:53:47;;;;;;;8.98;1.60;;;;;;;13.47;100.00;99818.56;5027681;28;19909;-78
2022/09/14 05:56:13;;;;;;;8.93;1.83;;;;;;;13.46;100.00;99792.78;5027434;28;20033;-78
2022/09/14 05:58:40;;;;;;;12.32;3.95;;;;;;;13.55;100.00;99782.66;5010268;28;20021;-77
2022/09/14 06:01:10;;;;;;;11.23;2.08;;;;;;;13.68;100.00;99787.22;5027448;28;20029;-78
2022/09/14 06:03:36;;;;;;;15.52;3.20;;;;;;;13.58;100.00;99771.53;5019224;28;20128;-79
2022/09/14 06:06:03;;;;;;;12.35;3.35;;;;;;;13.63;100.00;99746.78;5011020;28;20021;-78
2022/09/14 06:08:28;;;;;;;10.75;1.95;;;;;;;13.75;100.00;99733.56;5028817;28;20402;-80
2022/09/14 06:10:53;;;;;;;9.90;2.23;;;;;;;13.81;100.00;99728.19;5029145;28;20017;-79
2022/09/14 06:13:19;;;;;;;9.07;2.33;;;;;;;14.01;100.00;99727.34;5037290;28;20743;-78
2022/09/14 06:15:44;;;;;;;11.47;3.23;;;;;;;13.99;100.00;99695.34;5027410;28;20115;-78
2022/09/14 06:18:10;;;;;;;8.47;2.63;;;;;;;14.19;100.00;99716.78;5028805;28;20041;-79
2022/09/14 06:20:35;;;;;;;13.60;2.67;;;;;;;15.33;100.00;99736.66;5019426;28;20034;-78
2022/09/14 06:23:00;;;;;;;7.70;2.30;;;;;;;15.29;100.00;99551.78;5028524;28;20083;-77
2022/09/14 06:25:27;;;;;;;7.80;1.73;;;;;;;15.27;100.00;99548.50;5037507;28;20036;-79
2022/09/14 06:27:53;;;;;;;;;;;;;;;16.60;100.00;99598.84;5039539;28;20029;-77
2022/09/14 06:30:19;;;;;;;7.43;1.70;;;;;;;17.52;100.00;99385.22;5039625;28;19909;-80
2022/09/14 06:32:44;;;;;;;8.68;1.98;;;;;;;17.29;100.00;99183.84;5037506;28;20836;-78
2022/09/14 06:35:10;;;;;;;12.30;1.90;;;;;;;16.99;100.00;99130.19;5037997;28;20029;-77
2022/09/14 06:37:35;;;;;;;10.17;1.93;;;;;;;17.63;100.00;99151.47;5025074;28;20036;-78
2022/09/14 06:40:01;;;;;;;8.77;1.73;;;;;;;18.00;100.00;99121.19;5027255;28;20026;-78
2022/09/14 06:42:29;;;;;;;9.77;2.22;;;;;;;17.97;100.00;99062.31;5043050;28;20120;-78
2022/09/14 06:44:55;;;;;;;8.90;1.67;;;;;;;17.99;100.00;99054.78;5010371;28;20029;-79
2022/09/14 06:47:22;;;;;;;10.73;1.60;;;;;;;18.51;100.00;98919.13;5026645;28;20035;-78
2022/09/14 06:49:49;;;;;;;9.63;1.85;;;;;;;17.82;100.00;98910.97;5009322;28;20025;-77
2022/09/14 06:52:14;;;;;;;10.13;2.47;;;;;;;17.96;100.00;99074.19;5024745;28;20029;-77
2022/09/14 06:54:40;;;;;;;6.25;1.80;;;;;;;17.12;100.00;99077.84;5019459;28;20025;-81
2022/09/14 06:57:05;;;;;;;6.30;1.83;;;;;;;16.96;100.00;99175.72;5025484;28;20663;-80
2022/09/14 06:59:30;;;;;;;7.90;2.03;;;;;;;16.71;100.00;99240.69;5009459;28;20433;-78
2022/09/14 07:01:56;;;;;;;9.80;1.83;;;;;;;17.22;100.00;99385.44;5025968;28;20060;-78
2022/09/14 07:04:21;;;;;;;5.63;2.20;;;;;;;17.13;100.00;99168.47;5009440;28;20053;-81
2022/09/14 07:06:48;;;;;;;4.83;1.30;;;;;;;17.09;100.00;99264.38;5009193;28;20044;-77
2022/09/14 07:09:15;;;;;;;9.63;2.05;;;;;;;16.56;100.00;99287.03;5025917;28;20282;-78
2022/09/14 07:11:42;;;;;;;9.00;1.92;;;;;;;16.20;100.00;99424.38;5013794;28;20242;-78
2022/09/14 07:14:08;;;;;;;8.20;1.40;;;;;;;16.26;100.00;99506.09;5012084;28;20390;-80
2022/09/14 07:16:35;;;;;;;6.40;1.60;;;;;;;16.38;100.00;99487.28;5025245;28;20133;-78
2022/09/14 07:19:03;;;;;;;7.68;2.05;;;;;;;16.40;100.00;99471.72;5008728;28;20549;-78
2022/09/14 07:21:30;;;;;;;12.30;1.77;;;;;;;16.25;100.00;99534.91;5005297;28;20029;-76
2022/09/14 07:23:56;;;;;;;6.13;1.30;;;;;;;16.05;100.00;99539.75;5005505;28;20041;-80
2022/09/14 07:26:27;;;;;;;9.75;1.55;;;;;;;16.04;100.00;99608.13;5040446;28;20033;-78
2022/09/14 07:28:55;;;;;;;9.45;1.67;;;;;;;16.15;100.00;99689.97;5025927;28;20033;-78
2022/09/14 07:31:29;;;;;;;5.60;1.48;;;;;;;15.91;100.00;99660.22;5021064;28;20390;-78
2022/09/14 07:33:57;;;;;;;12.25;2.85;;;;;;;16.08;100.00;99683.84;5022347;28;20846;-78
2022/09/14 07:36:24;;;;;;;7.45;2.38;;;;;;;15.26;100.00;99614.88;5019160;28;20075;-77
2022/09/14 07:38:50;;;;;;;7.20;1.30;;;;;;;15.44;100.00;99780.03;5033023;28;20017;-78
2022/09/14 07:41:15;;;;;;;;;;;;;;;15.83;100.00;99863.19;5039102;28;20244;-77
2022/09/14 07:43:40;;;;;;;;;;;;;;;15.70;100.00;99660.63;5032846;28;19962;-78
2022/09/14 07:46:06;;;;;;;6.47;1.30;;;;;;;16.55;100.00;99738.00;5011661;28;19916;-78
2022/09/14 07:48:33;;;;;;;5.60;1.80;;;;;;;17.06;100.00;99607.28;5038879;28;20032;-77
2022/09/14 07:51:04;;;;;;;10.20;2.08;;;;;;;17.45;100.00;99424.19;5016291;28;20078;-77
2022/09/14 07:53:31;;;;;;;7.95;1.45;;;;;;;17.38;100.00;99391.16;5031167;28;20036;-77
2022/09/14 07:56:00;;;;;;;;;;;;;;;17.42;100.00;99439.00;5021943;28;20021;-79
2022/09/14 07:58:26;;;;;;;10.82;2.17;;;;;;;17.02;100.00;99236.72;5035602;28;19921;-78
2022/09/14 08:00:56;;;;;;;;;;;;;;;17.06;100.00;99354.66;5019672;28;20021;-79
2022/09/14 08:03:22;;;;;;;5.53;1.63;;;;;;;17.02;100.00;99306.84;5039337;28;19920;-77
2022/09/14 08:05:47;;;;;;;5.70;1.67;;;;;;;17.20;100.00;99384.03;5040442;28;20017;-77
2022/09/14 08:08:13;;;;;;;11.47;2.27;;;;;;;17.64;100.00;99378.97;5037281;28;20037;-79
2022/09/14 08:10:38;;;;;;;9.80;2.03;;;;;;;17.79;100.00;99300.94;5036140;28;20029;-78
2022/09/14 08:13:03;;;;;;;5.90;1.33;;;;;;;17.83;100.00;99288.63;5042767;28;20037;-78
2022/09/14 08:15:30;;;;;;;7.83;1.50;;;;;;;17.72;100.00;99309.22;5039271;28;20021;-79
2022/09/14 08:17:56;;;;;;;7.25;2.35;;;;;;;17.45;100.00;99268.53;5037335;28;20049;-78
2022/09/14 08:20:22;;;;;;;14.25;1.50;;;;;;;18.18;100.00;99432.59;5035628;28;20029;-79
2022/09/14 08:22:47;;;;;;;7.40;1.40;;;;;;;18.61;100.00;99355.41;5049794;28;20037;-78
2022/09/14 08:25:13;;;;;;;6.07;1.15;;;;;;;19.10;100.00;99153.47;5044182;28;20021;-79
2022/09/14 08:27:38;;;;;;;10.63;1.90;;;;;;;19.45;100.00;98921.31;5036909;28;20652;-78
2022/09/14 08:30:05;;;;;;;8.17;1.33;;;;;;;20.01;100.00;99043.38;5037702;28;20021;-78
2022/09/14 08:32:30;;;;;;;6.57;1.33;;;;;;;19.33;100.00;98897.19;5035154;28;20037;-78
2022/09/14 08:34:56;;;;;;;8.10;1.30;;;;;;;19.70;99.53;98967.44;5036778;28;20025;-78
2022/09/14 08:37:21;;;;;;;7.70;1.60;;;;;;;19.23;96.63;98788.94;5038944;28;20506;-77
2022/09/14 08:39:46;;;;;;;8.37;1.40;;;;;;;19.93;95.87;98968.06;5031807;28;20017;-79
2022/09/14 08:42:17;;;;;;;4.63;1.47;;;;;;;20.84;91.35;98944.81;5035335;28;20124;-78
2022/09/14 08:44:53;;;;;;;8.80;1.70;;;;;;;21.01;85.82;98736.44;5031724;28;20398;-78
2022/09/14 08:47:23;;;;;;;;;;;;;;;21.32;82.72;98673.03;5028776;28;20509;-79
2022/09/14 08:50:11;;;;;;;6.80;1.40;;;;;;;22.13;80.96;98770.09;5032634;28;19909;-76
2022/09/14 08:52:43;;;;;;;7.63;1.45;;;;;;;21.50;75.45;98236.13;5027613;28;20394;-77
2022/09/14 08:55:43;;;;;;;4.50;1.10;;;;;;;21.90;75.02;98426.69;5034460;28;20081;-79
2022/09/14 08:58:09;;;;;;;6.70;1.40;;;;;;;21.28;76.04;98396.81;4986497;28;20041;-79
2022/09/14 09:00:40;;;;;;;10.73;1.60;;;;;;;21.77;74.83;98484.44;5034764;28;20025;-77
2022/09/14 09:03:21;;;;;;;6.15;1.40;;;;;;;21.37;74.84;98398.84;5034456;28;20041;-79
2022/09/14 09:06:09;;;;;;;7.70;1.48;;;;;;;21.48;76.76;98664.50;5031487;28;20045;-78
2022/09/14 09:09:01;;;;;;;6.47;1.45;;;;;;;21.59;77.39;98752.09;5016249;28;20041;-75
2022/09/14 09:11:38;;;;;;;6.55;1.48;;;;;;;22.32;71.48;98459.53;5027275;28;20068;-78
2022/09/14 09:14:15;;;;;;;5.13;1.60;;;;;;;21.50;70.19;98211.69;5027232;28;20037;-78
2022/09/14 09:16:42;;;;;;;6.32;1.65;;;;;;;21.09;72.55;98363.38;5024922;28;20065;-79
2022/09/14 09:19:16;;;;;;;6.85;1.48;;;;;;;21.00;75.87;98626.31;5025756;28;20013;-78
2022/09/14 09:21:45;;;;;;;5.75;1.35;;;;;;;20.20;77.44;98583.91;5025439;28;20041;-77
2022/09/14 09:24:28;;;;;;;5.95;1.42;;;;;;;20.43;77.68;98704.41;5025238;28;20053;-78
2022/09/14 09:26:54;;;;;;;6.15;1.35;;;;;;;20.10;76.50;98548.75;5025915;28;20045;-79
2022/09/14 09:29:19;;;;;;;6.87;1.30;;;;;;;20.76;75.66;98710.25;5030169;28;20037;-77
2022/09/14 09:32:06;;;;;;;7.43;1.08;;;;;;;22.02;70.79;98640.88;5019408;28;20586;-78
2022/09/14 09:35:04;;;;;;;7.50;1.63;;;;;;;21.38;69.81;98355.16;4955493;28;20527;-78
2022/09/14 09:38:12;;;;;;;5.60;1.45;;;;;;;22.77;67.45;98628.53;4996728;28;20076;-78
2022/09/14 09:40:43;;;;;;;7.03;1.27;;;;;;;23.15;65.81;98574.91;5027254;28;20025;-78
2022/09/14 09:43:18;;;;;;;5.22;1.38;;;;;;;22.46;63.60;98145.03;5027385;28;20033;-77
2022/09/14 09:45:48;;;;;;;7.45;1.27;;;;;;;23.47;64.85;98605.13;5029033;28;20037;-77
2022/09/14 09:48:16;;;;;;;7.32;1.65;;;;;;;23.31;65.05;98561.03;5029213;28;20036;-77
2022/09/14 09:51:03;;;;;;;4.57;1.20;;;;;;;22.83;64.78;98414.34;5018738;28;20022;-78
2022/09/14 09:53:29;;;;;;;5.57;1.20;;;;;;;21.56;67.15;98329.13;5028201;28;20555;-77
2022/09/14 09:55:55;;;;;;;8.27;1.40;;;;;;;20.93;68.81;98294.13;5010824;28;20578;-78
2022/09/14 09:58:28;;;;;;;3.95;1.10;;;;;;;20.17;72.08;98472.63;5027513;28;20048;-77
2022/09/14 10:01:06;;;;;;;6.32;1.58;;;;;;;19.70;78.74;98840.19;5029435;28;20187;-77
2022/09/14 10:03:37;;;;;;;4.95;1.40;;;;;;;19.33;80.33;98841.16;5030112;28;20036;-78
2022/09/14 10:06:09;;;;;;;5.50;1.15;;;;;;;18.93;85.13;98996.78;5036076;28;20064;-76
2022/09/14 10:08:41;;;;;;;9.32;1.77;;;;;;;18.47;89.06;99080.16;5020702;28;20029;-78
2022/09/14 10:11:28;;;;;;;3.05;1.13;;;;;;;18.15;91.66;99098.97;5028656;28;20116;-78
2022/09/14 10:13:54;;;;;;;6.82;1.90;;;;;;;17.90;94.33;99180.47;5020668;28;20029;-77
2022/09/14 10:16:19;;;;;;;5.78;1.40;;;;;;;17.77;97.18;99250.97;5030393;28;20088;-77
2022/09/14 10:18:50;;;;;;;7.30;1.50;;;;;;;17.80;97.92;99296.38;5027849;28;20037;-78
2022/09/14 10:21:20;;;;;;;7.60;1.42;;;;;;;17.67;97.38;99236.25;5027360;28;20132;-78
2022/09/14 10:24:00;;;;;;;4.55;1.25;;;;;;;17.47;100.00;99373.53;5029459;28;20033;-77
2022/09/14 10:26:30;;;;;;;6.40;1.27;;;;;;;17.19;100.00;99342.78;5025632;28;20041;-78
2022/09/14 10:29:22;;;;;;;5.18;1.33;;;;;;;16.90;100.00;99397.72;5027830;28;20481;-78
2022/09/14 10:31:49;;;;;;;6.63;1.25;;;;;;;17.03;100.00;99481.03;5022115;28;20433;-78
2022/09/14 10:34:19;;;;;;;7.65;1.55;;;;;;;16.73;100.00;99273.63;5027352;28;20029;-80
2022/09/14 10:36:53;;;;;;;10.40;1.50;;;;;;;16.77;100.00;99269.41;5026792;28;20810;-77
2022/09/14 10:39:30;;;;;;;4.80;1.80;;;;;;;17.03;100.00;99346.22;5028248;28;20045;-77
2022/09/14 10:42:13;;;;;;;;;;;;;;;17.12;100.00;99379.84;5026955;28;20033;-78
2022/09/14 10:45:04;;;;;;;4.47;1.10;;;;;;;17.24;100.00;99410.31;5026638;28;19916;-77
2022/09/14 10:47:50;;;;;;;14.02;1.70;;;;;;;17.38;100.00;99350.69;5023596;28;20037;-79
2022/09/14 10:50:53;;;;;;;5.32;1.23;;;;;;;17.75;100.00;99388.03;5032843;28;20506;-79
2022/09/14 10:53:40;;;;;;;3.63;1.52;;;;;;;17.64;91.23;98942.59;5042781;28;20124;-77
2022/09/14 10:56:20;;;;;;;7.68;2.72;;;;;;;17.89;88.55;98881.91;5030714;28;20040;-79
2022/09/14 10:59:06;;;;;;;6.72;0.90;;;;;;;18.20;90.28;99063.13;5030677;28;20522;-79
2022/09/14 11:02:02;;;;;;;6.78;1.77;;;;;;;18.23;90.32;99085.03;5028986;28;20140;-79
2022/09/14 11:04:48;;;;;;;6.18;1.02;;;;;;;18.01;93.16;99184.94;5026068;28;20397;-78
2022/09/14 11:07:30;;;;;;;8.10;1.52;;;;;;;17.78;94.00;99145.44;5037563;28;20037;-78
2022/09/14 11:10:23;;;;;;;8.38;1.10;;;;;;;17.43;93.03;99016.25;5035678;28;20119;-77
2022/09/14 11:13:46;;;;;;;4.82;1.10;;;;;;;17.39;94.32;99075.28;5031411;28;20032;-80
2022/09/14 11:16:22;;;;;;;5.18;1.05;;;;;;;17.60;90.53;98971.16;4974043;28;20070;-77
2022/09/14 11:18:59;;;;;;;2.60;0.77;;;;;;;17.42;89.02;98833.88;4987252;28;20075;-80
2022/09/14 11:21:39;;;;;;;7.03;1.20;;;;;;;17.49;93.68;99109.69;4989795;28;20085;-77
2022/09/14 11:24:23;;;;;;;4.53;0.90;;;;;;;17.64;94.86;99180.06;4990979;28;20084;-77
2022/09/14 11:27:00;;;;;;;4.97;0.88;;;;;;;17.54;92.02;99034.22;4986270;28;20052;-78
2022/09/14 11:29:48;;;;;;;3.83;1.00;;;;;;;17.78;95.82;99261.53;4970067;28;20045;-78
2022/09/14 11:32:23;;;;;;;3.88;1.05;;;;;;;17.09;89.32;98752.09;4977401;28;20190;-78
2022/09/14 11:35:01;;;;;;;4.80;1.20;;;;;;;17.26;91.42;98946.19;4946122;28;20447;-77
2022/09/14 11:37:41;;;;;;;7.20;1.50;;;;;;;17.40;95.93;99205.59;4984470;28;20045;-77
2022/09/14 11:40:19;;;;;;;3.70;1.10;;;;;;;16.86;95.86;99049.69;4984621;28;20042;-77
2022/09/14 11:42:57;;;;;;;3.33;1.20;;;;;;;17.04;98.30;99234.63;4968861;28;20038;-78
2022/09/14 11:45:28;;;;;;;11.77;2.17;;;;;;;16.85;98.74;99155.84;4984920;28;20030;-78